sensor_id;sensor_type;location;lat;lon;timestamp;temperature;humidity
35381;DHT22;21486;51.916;8.378;2022-10-16T00:00:17;13.80;92.30
35381;DHT22;21486;51.916;8.378;2022-10-16T00:02:43;13.80;92.30
35381;DHT22;21486;51.916;8.378;2022-10-16T00:05:08;13.80;92.40
35381;DHT22;21486;51.916;8.378;2022-10-16T00:07:34;13.80;92.40
35381;DHT22;21486;51.916;8.378;2022-10-16T00:09:59;13.70;92.50
35381;DHT22;21486;51.916;8.378;2022-10-16T00:12:25;13.70;92.50
35381;DHT22;21486;51.916;8.378;2022-10-16T00:14:50;13.70;92.50
35381;DHT22;21486;51.916;8.378;2022-10-16T00:17:16;13.70;92.50
35381;DHT22;21486;51.916;8.378;2022-10-16T00:19:41;13.70;92.50
35381;DHT22;21486;51.916;8.378;2022-10-16T00:22:07;13.70;92.60
35381;DHT22;21486;51.916;8.378;2022-10-16T00:24:32;13.60;92.60
35381;DHT22;21486;51.916;8.378;2022-10-16T00:26:57;13.60;92.60
35381;DHT22;21486;51.916;8.378;2022-10-16T00:29:23;13.60;92.80
35381;DHT22;21486;51.916;8.378;2022-10-16T00:33:02;13.60;92.70
35381;DHT22;21486;51.916;8.378;2022-10-16T00:35:28;13.60;92.90
35381;DHT22;21486;51.916;8.378;2022-10-16T00:37:54;13.50;93.00
35381;DHT22;21486;51.916;8.378;2022-10-16T00:40:20;13.50;93.00
35381;DHT22;21486;51.916;8.378;2022-10-16T00:42:45;13.50;93.00
35381;DHT22;21486;51.916;8.378;2022-10-16T00:45:11;13.50;93.00
35381;DHT22;21486;51.916;8.378;2022-10-16T00:47:39;13.50;93.10
35381;DHT22;21486;51.916;8.378;2022-10-16T00:50:17;13.50;93.00
35381;DHT22;21486;51.916;8.378;2022-10-16T00:52:46;13.50;93.10
35381;DHT22;21486;51.916;8.378;2022-10-16T00:55:13;13.50;93.10
35381;DHT22;21486;51.916;8.378;2022-10-16T00:57:39;13.50;93.20
35381;DHT22;21486;51.916;8.378;2022-10-16T01:00:07;13.40;93.00
35381;DHT22;21486;51.916;8.378;2022-10-16T01:02:33;13.40;93.10
35381;DHT22;21486;51.916;8.378;2022-10-16T01:04:59;13.40;93.10
35381;DHT22;21486;51.916;8.378;2022-10-16T01:07:43;13.40;93.20
35381;DHT22;21486;51.916;8.378;2022-10-16T01:10:44;13.30;93.20
35381;DHT22;21486;51.916;8.378;2022-10-16T01:13:21;13.30;93.40
35381;DHT22;21486;51.916;8.378;2022-10-16T01:16:05;13.20;93.50
35381;DHT22;21486;51.916;8.378;2022-10-16T01:18:47;13.20;93.70
35381;DHT22;21486;51.916;8.378;2022-10-16T01:21:26;13.30;93.60
35381;DHT22;21486;51.916;8.378;2022-10-16T01:31:39;13.20;93.50
35381;DHT22;21486;51.916;8.378;2022-10-16T01:34:16;13.30;93.50
35381;DHT22;21486;51.916;8.378;2022-10-16T01:36:51;13.30;93.50
35381;DHT22;21486;51.916;8.378;2022-10-16T01:39:21;13.20;93.60
35381;DHT22;21486;51.916;8.378;2022-10-16T01:41:54;13.20;93.60
35381;DHT22;21486;51.916;8.378;2022-10-16T01:44:23;13.20;93.70
35381;DHT22;21486;51.916;8.378;2022-10-16T01:46:52;13.20;93.80
35381;DHT22;21486;51.916;8.378;2022-10-16T01:49:19;13.20;93.60
35381;DHT22;21486;51.916;8.378;2022-10-16T01:51:49;13.20;93.60
35381;DHT22;21486;51.916;8.378;2022-10-16T01:54:18;13.20;93.60
35381;DHT22;21486;51.916;8.378;2022-10-16T01:56:46;13.10;93.70
35381;DHT22;21486;51.916;8.378;2022-10-16T01:59:17;13.10;93.80
35381;DHT22;21486;51.916;8.378;2022-10-16T02:01:47;13.00;94.00
35381;DHT22;21486;51.916;8.378;2022-10-16T02:04:22;13.00;94.30
35381;DHT22;21486;51.916;8.378;2022-10-16T02:06:49;12.90;94.30
35381;DHT22;21486;51.916;8.378;2022-10-16T02:09:15;12.90;94.30
35381;DHT22;21486;51.916;8.378;2022-10-16T02:11:43;12.90;94.60
35381;DHT22;21486;51.916;8.378;2022-10-16T02:14:09;12.90;94.40
35381;DHT22;21486;51.916;8.378;2022-10-16T02:16:38;12.90;94.40
35381;DHT22;21486;51.916;8.378;2022-10-16T02:19:05;12.90;94.30
35381;DHT22;21486;51.916;8.378;2022-10-16T02:24:11;12.70;94.50
35381;DHT22;21486;51.916;8.378;2022-10-16T02:29:12;12.70;94.70
35381;DHT22;21486;51.916;8.378;2022-10-16T02:31:43;12.70;94.70
35381;DHT22;21486;51.916;8.378;2022-10-16T02:34:11;12.80;94.70
35381;DHT22;21486;51.916;8.378;2022-10-16T02:36:38;12.90;94.70
35381;DHT22;21486;51.916;8.378;2022-10-16T02:39:04;12.90;94.60
35381;DHT22;21486;51.916;8.378;2022-10-16T02:41:31;12.90;94.40
35381;DHT22;21486;51.916;8.378;2022-10-16T02:43:57;12.90;94.40
35381;DHT22;21486;51.916;8.378;2022-10-16T02:46:22;12.90;94.30
35381;DHT22;21486;51.916;8.378;2022-10-16T02:48:48;13.00;94.40
35381;DHT22;21486;51.916;8.378;2022-10-16T02:51:14;12.90;94.30
35381;DHT22;21486;51.916;8.378;2022-10-16T02:53:39;12.90;94.30
35381;DHT22;21486;51.916;8.378;2022-10-16T02:56:05;12.90;94.30
35381;DHT22;21486;51.916;8.378;2022-10-16T02:58:30;12.90;94.20
35381;DHT22;21486;51.916;8.378;2022-10-16T03:00:56;12.90;94.50
35381;DHT22;21486;51.916;8.378;2022-10-16T03:03:22;12.90;94.20
35381;DHT22;21486;51.916;8.378;2022-10-16T03:05:47;12.90;94.40
35381;DHT22;21486;51.916;8.378;2022-10-16T03:08:13;12.90;94.30
35381;DHT22;21486;51.916;8.378;2022-10-16T03:10:39;12.90;94.30
35381;DHT22;21486;51.916;8.378;2022-10-16T03:13:04;12.90;94.30
35381;DHT22;21486;51.916;8.378;2022-10-16T03:15:30;12.90;94.00
35381;DHT22;21486;51.916;8.378;2022-10-16T03:17:59;12.90;94.20
35381;DHT22;21486;51.916;8.378;2022-10-16T03:20:25;12.90;94.20
35381;DHT22;21486;51.916;8.378;2022-10-16T03:22:51;12.90;94.30
35381;DHT22;21486;51.916;8.378;2022-10-16T03:25:17;12.90;94.20
35381;DHT22;21486;51.916;8.378;2022-10-16T03:27:42;12.90;94.20
35381;DHT22;21486;51.916;8.378;2022-10-16T03:30:08;13.00;94.00
35381;DHT22;21486;51.916;8.378;2022-10-16T03:32:34;12.90;94.00
35381;DHT22;21486;51.916;8.378;2022-10-16T03:34:59;13.00;93.80
35381;DHT22;21486;51.916;8.378;2022-10-16T03:37:25;12.90;93.90
35381;DHT22;21486;51.916;8.378;2022-10-16T03:39:51;12.90;93.90
35381;DHT22;21486;51.916;8.378;2022-10-16T03:42:16;12.90;94.00
35381;DHT22;21486;51.916;8.378;2022-10-16T03:44:42;12.90;94.00
35381;DHT22;21486;51.916;8.378;2022-10-16T03:47:07;12.90;94.00
35381;DHT22;21486;51.916;8.378;2022-10-16T03:49:33;12.90;94.00
35381;DHT22;21486;51.916;8.378;2022-10-16T03:51:59;12.90;94.00
35381;DHT22;21486;51.916;8.378;2022-10-16T03:54:24;13.00;93.90
35381;DHT22;21486;51.916;8.378;2022-10-16T03:56:50;13.00;93.80
35381;DHT22;21486;51.916;8.378;2022-10-16T03:59:15;13.00;93.70
35381;DHT22;21486;51.916;8.378;2022-10-16T04:01:41;13.10;93.40
35381;DHT22;21486;51.916;8.378;2022-10-16T04:04:06;13.20;93.20
35381;DHT22;21486;51.916;8.378;2022-10-16T04:06:32;13.20;93.10
35381;DHT22;21486;51.916;8.378;2022-10-16T04:08:58;13.20;93.00
35381;DHT22;21486;51.916;8.378;2022-10-16T04:11:24;13.20;93.10
35381;DHT22;21486;51.916;8.378;2022-10-16T04:13:49;13.20;93.00
35381;DHT22;21486;51.916;8.378;2022-10-16T04:16:15;13.30;93.00
35381;DHT22;21486;51.916;8.378;2022-10-16T04:18:41;13.30;92.90
35381;DHT22;21486;51.916;8.378;2022-10-16T04:21:07;13.40;92.80
35381;DHT22;21486;51.916;8.378;2022-10-16T04:23:33;13.40;92.80
35381;DHT22;21486;51.916;8.378;2022-10-16T04:25:59;13.40;92.70
35381;DHT22;21486;51.916;8.378;2022-10-16T04:28:25;13.40;92.60
35381;DHT22;21486;51.916;8.378;2022-10-16T04:30:50;13.40;92.50
35381;DHT22;21486;51.916;8.378;2022-10-16T04:33:16;13.50;92.40
35381;DHT22;21486;51.916;8.378;2022-10-16T04:35:42;13.40;92.40
35381;DHT22;21486;51.916;8.378;2022-10-16T04:38:07;13.50;92.50
35381;DHT22;21486;51.916;8.378;2022-10-16T04:40:33;13.50;92.40
35381;DHT22;21486;51.916;8.378;2022-10-16T04:43:04;13.50;92.40
35381;DHT22;21486;51.916;8.378;2022-10-16T04:45:29;13.60;92.40
35381;DHT22;21486;51.916;8.378;2022-10-16T04:47:59;13.60;92.20
35381;DHT22;21486;51.916;8.378;2022-10-16T04:50:24;13.50;92.30
35381;DHT22;21486;51.916;8.378;2022-10-16T04:52:50;13.60;92.20
35381;DHT22;21486;51.916;8.378;2022-10-16T04:55:15;13.60;92.00
35381;DHT22;21486;51.916;8.378;2022-10-16T04:57:41;13.60;91.90
35381;DHT22;21486;51.916;8.378;2022-10-16T05:00:08;13.70;91.90
35381;DHT22;21486;51.916;8.378;2022-10-16T05:02:33;13.60;91.90
35381;DHT22;21486;51.916;8.378;2022-10-16T05:04:59;13.60;92.00
35381;DHT22;21486;51.916;8.378;2022-10-16T05:07:25;13.50;91.90
35381;DHT22;21486;51.916;8.378;2022-10-16T05:09:50;13.40;92.10
35381;DHT22;21486;51.916;8.378;2022-10-16T05:12:16;13.40;92.20
35381;DHT22;21486;51.916;8.378;2022-10-16T05:14:41;13.30;92.20
35381;DHT22;21486;51.916;8.378;2022-10-16T05:17:07;13.40;92.40
35381;DHT22;21486;51.916;8.378;2022-10-16T05:19:32;13.20;92.40
35381;DHT22;21486;51.916;8.378;2022-10-16T05:21:58;13.20;92.60
35381;DHT22;21486;51.916;8.378;2022-10-16T05:24:24;13.10;92.80
35381;DHT22;21486;51.916;8.378;2022-10-16T05:26:50;13.10;92.60
35381;DHT22;21486;51.916;8.378;2022-10-16T05:29:15;13.10;92.80
35381;DHT22;21486;51.916;8.378;2022-10-16T05:31:41;13.10;92.90
35381;DHT22;21486;51.916;8.378;2022-10-16T05:34:07;13.00;93.10
35381;DHT22;21486;51.916;8.378;2022-10-16T05:36:32;12.90;93.20
35381;DHT22;21486;51.916;8.378;2022-10-16T05:38:58;13.00;93.00
35381;DHT22;21486;51.916;8.378;2022-10-16T05:41:23;12.90;93.00
35381;DHT22;21486;51.916;8.378;2022-10-16T05:43:51;13.00;93.20
35381;DHT22;21486;51.916;8.378;2022-10-16T05:46:17;12.90;93.20
35381;DHT22;21486;51.916;8.378;2022-10-16T05:48:42;12.90;93.10
35381;DHT22;21486;51.916;8.378;2022-10-16T05:51:10;13.00;92.90
35381;DHT22;21486;51.916;8.378;2022-10-16T05:53:37;12.90;93.00
35381;DHT22;21486;51.916;8.378;2022-10-16T05:56:04;12.90;93.10
35381;DHT22;21486;51.916;8.378;2022-10-16T05:58:34;12.90;93.10
35381;DHT22;21486;51.916;8.378;2022-10-16T06:01:06;13.00;93.00
35381;DHT22;21486;51.916;8.378;2022-10-16T06:03:33;13.00;92.90
35381;DHT22;21486;51.916;8.378;2022-10-16T06:05:59;12.90;93.00
35381;DHT22;21486;51.916;8.378;2022-10-16T06:08:25;12.90;92.90
35381;DHT22;21486;51.916;8.378;2022-10-16T06:11:01;12.90;93.00
35381;DHT22;21486;51.916;8.378;2022-10-16T06:13:27;12.90;92.90
35381;DHT22;21486;51.916;8.378;2022-10-16T06:15:53;13.00;92.70
35381;DHT22;21486;51.916;8.378;2022-10-16T06:18:21;13.10;92.60
35381;DHT22;21486;51.916;8.378;2022-10-16T06:20:47;13.10;92.30
35381;DHT22;21486;51.916;8.378;2022-10-16T06:23:12;13.20;92.30
35381;DHT22;21486;51.916;8.378;2022-10-16T06:25:38;13.10;92.30
35381;DHT22;21486;51.916;8.378;2022-10-16T06:28:03;13.10;92.30
35381;DHT22;21486;51.916;8.378;2022-10-16T06:30:29;13.10;92.40
35381;DHT22;21486;51.916;8.378;2022-10-16T06:32:55;13.10;92.40
35381;DHT22;21486;51.916;8.378;2022-10-16T06:35:20;13.20;92.20
35381;DHT22;21486;51.916;8.378;2022-10-16T06:37:46;13.30;92.10
35381;DHT22;21486;51.916;8.378;2022-10-16T06:40:11;13.40;91.60
35381;DHT22;21486;51.916;8.378;2022-10-16T06:42:39;13.50;91.50
35381;DHT22;21486;51.916;8.378;2022-10-16T06:45:05;13.50;91.40
35381;DHT22;21486;51.916;8.378;2022-10-16T06:47:31;13.60;91.10
35381;DHT22;21486;51.916;8.378;2022-10-16T06:49:56;13.60;91.00
35381;DHT22;21486;51.916;8.378;2022-10-16T06:52:22;13.60;91.00
35381;DHT22;21486;51.916;8.378;2022-10-16T06:54:47;13.60;91.10
35381;DHT22;21486;51.916;8.378;2022-10-16T06:57:13;13.60;91.50
35381;DHT22;21486;51.916;8.378;2022-10-16T06:59:38;13.50;91.30
35381;DHT22;21486;51.916;8.378;2022-10-16T07:02:04;13.70;91.10
35381;DHT22;21486;51.916;8.378;2022-10-16T07:04:30;13.80;90.90
35381;DHT22;21486;51.916;8.378;2022-10-16T07:06:56;13.80;90.80
35381;DHT22;21486;51.916;8.378;2022-10-16T07:09:21;13.90;90.60
35381;DHT22;21486;51.916;8.378;2022-10-16T07:11:47;13.90;90.30
35381;DHT22;21486;51.916;8.378;2022-10-16T07:14:16;14.00;90.20
35381;DHT22;21486;51.916;8.378;2022-10-16T07:16:42;14.10;90.20
35381;DHT22;21486;51.916;8.378;2022-10-16T07:19:08;14.10;90.00
35381;DHT22;21486;51.916;8.378;2022-10-16T07:21:34;14.20;90.10
35381;DHT22;21486;51.916;8.378;2022-10-16T07:24:05;14.30;89.20
35381;DHT22;21486;51.916;8.378;2022-10-16T07:26:34;14.40;89.10
35381;DHT22;21486;51.916;8.378;2022-10-16T07:29:00;14.40;88.90
35381;DHT22;21486;51.916;8.378;2022-10-16T07:31:27;14.40;89.10
35381;DHT22;21486;51.916;8.378;2022-10-16T07:33:53;14.60;88.40
35381;DHT22;21486;51.916;8.378;2022-10-16T07:36:20;14.70;87.90
35381;DHT22;21486;51.916;8.378;2022-10-16T07:38:46;14.70;87.90
35381;DHT22;21486;51.916;8.378;2022-10-16T07:41:15;14.80;87.70
35381;DHT22;21486;51.916;8.378;2022-10-16T07:43:46;14.80;87.10
35381;DHT22;21486;51.916;8.378;2022-10-16T07:46:12;14.80;87.40
35381;DHT22;21486;51.916;8.378;2022-10-16T07:48:38;15.00;86.60
35381;DHT22;21486;51.916;8.378;2022-10-16T07:51:06;14.90;87.00
35381;DHT22;21486;51.916;8.378;2022-10-16T07:53:32;14.90;86.70
35381;DHT22;21486;51.916;8.378;2022-10-16T07:55:59;14.80;87.70
35381;DHT22;21486;51.916;8.378;2022-10-16T07:58:25;14.80;87.60
35381;DHT22;21486;51.916;8.378;2022-10-16T08:00:51;14.80;87.40
35381;DHT22;21486;51.916;8.378;2022-10-16T08:03:16;14.70;87.30
35381;DHT22;21486;51.916;8.378;2022-10-16T08:05:42;14.70;88.00
35381;DHT22;21486;51.916;8.378;2022-10-16T08:08:12;14.60;88.50
35381;DHT22;21486;51.916;8.378;2022-10-16T08:10:38;14.70;88.20
35381;DHT22;21486;51.916;8.378;2022-10-16T08:13:04;14.80;87.90
35381;DHT22;21486;51.916;8.378;2022-10-16T08:15:29;14.80;87.60
35381;DHT22;21486;51.916;8.378;2022-10-16T08:17:57;15.00;87.20
35381;DHT22;21486;51.916;8.378;2022-10-16T08:20:22;15.20;86.60
35381;DHT22;21486;51.916;8.378;2022-10-16T08:22:48;15.40;86.00
35381;DHT22;21486;51.916;8.378;2022-10-16T08:25:14;15.70;85.00
35381;DHT22;21486;51.916;8.378;2022-10-16T08:27:39;15.70;83.70
35381;DHT22;21486;51.916;8.378;2022-10-16T08:30:05;15.90;84.30
35381;DHT22;21486;51.916;8.378;2022-10-16T08:32:31;16.20;82.20
35381;DHT22;21486;51.916;8.378;2022-10-16T08:34:56;16.30;81.70
35381;DHT22;21486;51.916;8.378;2022-10-16T08:37:22;16.60;81.00
35381;DHT22;21486;51.916;8.378;2022-10-16T08:39:48;16.80;78.70
35381;DHT22;21486;51.916;8.378;2022-10-16T08:50:32;18.10;74.50
35381;DHT22;21486;51.916;8.378;2022-10-16T08:52:59;18.70;72.70
35381;DHT22;21486;51.916;8.378;2022-10-16T08:57:50;19.20;69.30
35381;DHT22;21486;51.916;8.378;2022-10-16T09:00:16;19.50;68.10
35381;DHT22;21486;51.916;8.378;2022-10-16T09:06:25;20.40;65.90
35381;DHT22;21486;51.916;8.378;2022-10-16T09:09:04;20.70;65.90
35381;DHT22;21486;51.916;8.378;2022-10-16T09:17:00;21.20;63.00
35381;DHT22;21486;51.916;8.378;2022-10-16T09:19:38;21.00;62.00
35381;DHT22;21486;51.916;8.378;2022-10-16T09:22:14;20.50;62.70
35381;DHT22;21486;51.916;8.378;2022-10-16T09:24:40;20.50;63.40
35381;DHT22;21486;51.916;8.378;2022-10-16T09:27:10;20.70;62.20
35381;DHT22;21486;51.916;8.378;2022-10-16T09:29:36;20.50;63.30
35381;DHT22;21486;51.916;8.378;2022-10-16T09:32:17;20.50;63.30
35381;DHT22;21486;51.916;8.378;2022-10-16T09:34:48;20.80;62.30
35381;DHT22;21486;51.916;8.378;2022-10-16T09:37:18;20.60;62.10
35381;DHT22;21486;51.916;8.378;2022-10-16T09:39:49;21.00;61.50
35381;DHT22;21486;51.916;8.378;2022-10-16T09:42:19;21.10;60.50
35381;DHT22;21486;51.916;8.378;2022-10-16T09:44:49;21.00;60.50
35381;DHT22;21486;51.916;8.378;2022-10-16T09:47:19;20.90;61.20
35381;DHT22;21486;51.916;8.378;2022-10-16T09:49:56;21.20;60.10
35381;DHT22;21486;51.916;8.378;2022-10-16T09:52:23;21.30;58.40
35381;DHT22;21486;51.916;8.378;2022-10-16T09:54:57;21.30;59.00
35381;DHT22;21486;51.916;8.378;2022-10-16T09:57:27;21.70;57.40
35381;DHT22;21486;51.916;8.378;2022-10-16T09:59:57;21.50;57.70
35381;DHT22;21486;51.916;8.378;2022-10-16T10:02:35;21.50;56.80
35381;DHT22;21486;51.916;8.378;2022-10-16T10:05:02;22.00;57.10
35381;DHT22;21486;51.916;8.378;2022-10-16T10:07:38;22.10;54.20
35381;DHT22;21486;51.916;8.378;2022-10-16T10:10:23;22.30;54.50
35381;DHT22;21486;51.916;8.378;2022-10-16T10:12:49;22.70;53.80
35381;DHT22;21486;51.916;8.378;2022-10-16T10:15:15;22.20;54.50
35381;DHT22;21486;51.916;8.378;2022-10-16T10:17:52;21.90;54.30
35381;DHT22;21486;51.916;8.378;2022-10-16T10:22:48;21.90;54.40
35381;DHT22;21486;51.916;8.378;2022-10-16T10:28:04;22.60;51.50
35381;DHT22;21486;51.916;8.378;2022-10-16T10:31:17;22.60;51.60
35381;DHT22;21486;51.916;8.378;2022-10-16T10:37:23;22.30;53.60
35381;DHT22;21486;51.916;8.378;2022-10-16T10:40:07;22.90;52.90
35381;DHT22;21486;51.916;8.378;2022-10-16T10:42:59;22.90;52.20
35381;DHT22;21486;51.916;8.378;2022-10-16T10:45:42;22.80;51.70
35381;DHT22;21486;51.916;8.378;2022-10-16T10:48:27;22.50;51.70
35381;DHT22;21486;51.916;8.378;2022-10-16T10:53:44;21.90;53.80
35381;DHT22;21486;51.916;8.378;2022-10-16T10:56:40;21.70;54.50
35381;DHT22;21486;51.916;8.378;2022-10-16T10:59:29;21.30;55.30
35381;DHT22;21486;51.916;8.378;2022-10-16T11:02:00;22.00;55.50
35381;DHT22;21486;51.916;8.378;2022-10-16T11:07:04;22.90;51.50
35381;DHT22;21486;51.916;8.378;2022-10-16T11:09:49;23.40;52.20
35381;DHT22;21486;51.916;8.378;2022-10-16T11:12:21;24.30;50.50
35381;DHT22;21486;51.916;8.378;2022-10-16T11:23:27;25.20;46.70
35381;DHT22;21486;51.916;8.378;2022-10-16T11:25:58;24.70;46.10
35381;DHT22;21486;51.916;8.378;2022-10-16T11:28:36;23.50;48.20
35381;DHT22;21486;51.916;8.378;2022-10-16T11:31:10;23.40;49.80
35381;DHT22;21486;51.916;8.378;2022-10-16T11:33:42;22.70;51.10
35381;DHT22;21486;51.916;8.378;2022-10-16T11:36:17;22.40;52.00
35381;DHT22;21486;51.916;8.378;2022-10-16T11:41:37;22.60;51.90
35381;DHT22;21486;51.916;8.378;2022-10-16T11:46:34;22.80;50.70
35381;DHT22;21486;51.916;8.378;2022-10-16T11:49:22;22.90;50.70
35381;DHT22;21486;51.916;8.378;2022-10-16T11:52:12;22.40;51.50
35381;DHT22;21486;51.916;8.378;2022-10-16T12:00:09;21.40;53.20
35381;DHT22;21486;51.916;8.378;2022-10-16T12:06:01;20.80;55.40
35381;DHT22;21486;51.916;8.378;2022-10-16T12:08:34;20.70;56.60
35381;DHT22;21486;51.916;8.378;2022-10-16T12:16:58;20.10;57.50
35381;DHT22;21486;51.916;8.378;2022-10-16T12:19:29;19.80;58.10
35381;DHT22;21486;51.916;8.378;2022-10-16T12:22:02;19.80;58.90
35381;DHT22;21486;51.916;8.378;2022-10-16T12:24:39;19.90;58.90
35381;DHT22;21486;51.916;8.378;2022-10-16T12:27:29;19.90;58.70
35381;DHT22;21486;51.916;8.378;2022-10-16T12:29:59;19.80;58.40
35381;DHT22;21486;51.916;8.378;2022-10-16T12:32:34;19.90;58.70
35381;DHT22;21486;51.916;8.378;2022-10-16T12:35:01;19.70;57.70
35381;DHT22;21486;51.916;8.378;2022-10-16T12:37:35;19.70;58.00
35381;DHT22;21486;51.916;8.378;2022-10-16T12:40:13;19.60;58.30
35381;DHT22;21486;51.916;8.378;2022-10-16T12:42:40;19.60;58.30
35381;DHT22;21486;51.916;8.378;2022-10-16T12:45:26;19.70;59.90
35381;DHT22;21486;51.916;8.378;2022-10-16T12:47:54;20.10;57.60
35381;DHT22;21486;51.916;8.378;2022-10-16T12:50:33;20.30;57.40
35381;DHT22;21486;51.916;8.378;2022-10-16T12:53:00;20.40;56.40
35381;DHT22;21486;51.916;8.378;2022-10-16T12:55:33;20.60;56.00
35381;DHT22;21486;51.916;8.378;2022-10-16T12:58:18;20.70;57.60
35381;DHT22;21486;51.916;8.378;2022-10-16T13:04:10;21.30;55.70
35381;DHT22;21486;51.916;8.378;2022-10-16T13:06:57;21.50;53.60
35381;DHT22;21486;51.916;8.378;2022-10-16T13:09:40;21.80;52.50
35381;DHT22;21486;51.916;8.378;2022-10-16T13:12:22;21.40;53.80
35381;DHT22;21486;51.916;8.378;2022-10-16T13:15:09;21.80;53.80
35381;DHT22;21486;51.916;8.378;2022-10-16T13:17:46;22.20;53.70
35381;DHT22;21486;51.916;8.378;2022-10-16T13:28:11;23.20;51.70
35381;DHT22;21486;51.916;8.378;2022-10-16T13:30:41;23.20;52.60
35381;DHT22;21486;51.916;8.378;2022-10-16T13:33:19;23.20;50.60
35381;DHT22;21486;51.916;8.378;2022-10-16T13:35:50;22.70;52.30
35381;DHT22;21486;51.916;8.378;2022-10-16T13:38:20;22.10;53.50
35381;DHT22;21486;51.916;8.378;2022-10-16T13:46:19;20.60;56.90
35381;DHT22;21486;51.916;8.378;2022-10-16T13:48:57;20.20;57.70
35381;DHT22;21486;51.916;8.378;2022-10-16T13:51:22;20.00;58.10
35381;DHT22;21486;51.916;8.378;2022-10-16T13:53:48;20.00;58.80
35381;DHT22;21486;51.916;8.378;2022-10-16T13:56:16;19.80;58.50
35381;DHT22;21486;51.916;8.378;2022-10-16T13:58:43;19.80;59.50
35381;DHT22;21486;51.916;8.378;2022-10-16T14:01:28;19.70;58.60
35381;DHT22;21486;51.916;8.378;2022-10-16T14:04:04;19.90;57.90
35381;DHT22;21486;51.916;8.378;2022-10-16T14:06:31;19.90;59.10
35381;DHT22;21486;51.916;8.378;2022-10-16T14:09:30;19.80;58.10
35381;DHT22;21486;51.916;8.378;2022-10-16T14:12:00;19.80;59.10
35381;DHT22;21486;51.916;8.378;2022-10-16T14:14:32;19.80;58.60
35381;DHT22;21486;51.916;8.378;2022-10-16T14:16:59;19.80;58.70
35381;DHT22;21486;51.916;8.378;2022-10-16T14:19:27;20.00;58.30
35381;DHT22;21486;51.916;8.378;2022-10-16T14:21:54;20.00;58.90
35381;DHT22;21486;51.916;8.378;2022-10-16T14:24:32;20.10;59.40
35381;DHT22;21486;51.916;8.378;2022-10-16T14:26:59;20.20;59.00
35381;DHT22;21486;51.916;8.378;2022-10-16T14:29:27;20.20;59.10
35381;DHT22;21486;51.916;8.378;2022-10-16T14:32:04;20.30;59.00
35381;DHT22;21486;51.916;8.378;2022-10-16T14:34:32;20.20;58.90
35381;DHT22;21486;51.916;8.378;2022-10-16T14:37:13;20.00;59.40
35381;DHT22;21486;51.916;8.378;2022-10-16T14:39:40;19.80;60.50
35381;DHT22;21486;51.916;8.378;2022-10-16T14:42:14;19.60;61.80
35381;DHT22;21486;51.916;8.378;2022-10-16T14:44:42;19.60;59.80
35381;DHT22;21486;51.916;8.378;2022-10-16T14:47:10;19.60;59.60
35381;DHT22;21486;51.916;8.378;2022-10-16T14:49:38;19.50;60.50
35381;DHT22;21486;51.916;8.378;2022-10-16T14:52:09;19.50;60.30
35381;DHT22;21486;51.916;8.378;2022-10-16T14:54:35;19.40;60.10
35381;DHT22;21486;51.916;8.378;2022-10-16T14:57:01;19.30;60.30
35381;DHT22;21486;51.916;8.378;2022-10-16T14:59:40;19.30;61.80
35381;DHT22;21486;51.916;8.378;2022-10-16T15:02:30;19.20;62.30
35381;DHT22;21486;51.916;8.378;2022-10-16T15:04:56;19.20;62.70
35381;DHT22;21486;51.916;8.378;2022-10-16T15:07:23;19.10;62.00
35381;DHT22;21486;51.916;8.378;2022-10-16T15:09:49;19.10;62.20
35381;DHT22;21486;51.916;8.378;2022-10-16T15:12:15;19.10;61.70
35381;DHT22;21486;51.916;8.378;2022-10-16T15:14:40;19.10;64.60
35381;DHT22;21486;51.916;8.378;2022-10-16T15:17:10;19.10;63.00
35381;DHT22;21486;51.916;8.378;2022-10-16T15:19:36;19.10;63.00
35381;DHT22;21486;51.916;8.378;2022-10-16T15:22:02;19.00;63.50
35381;DHT22;21486;51.916;8.378;2022-10-16T15:24:27;18.90;63.90
35381;DHT22;21486;51.916;8.378;2022-10-16T15:26:53;18.80;63.70
35381;DHT22;21486;51.916;8.378;2022-10-16T15:29:19;18.80;64.30
35381;DHT22;21486;51.916;8.378;2022-10-16T15:31:45;18.80;63.70
35381;DHT22;21486;51.916;8.378;2022-10-16T15:34:13;18.60;64.30
35381;DHT22;21486;51.916;8.378;2022-10-16T15:36:39;18.50;65.60
35381;DHT22;21486;51.916;8.378;2022-10-16T15:39:15;18.40;66.00
35381;DHT22;21486;51.916;8.378;2022-10-16T15:41:41;18.20;66.50
35381;DHT22;21486;51.916;8.378;2022-10-16T15:44:15;18.10;67.40
35381;DHT22;21486;51.916;8.378;2022-10-16T15:46:40;18.00;68.20
35381;DHT22;21486;51.916;8.378;2022-10-16T15:49:06;17.90;69.40
35381;DHT22;21486;51.916;8.378;2022-10-16T15:51:32;17.80;70.30
35381;DHT22;21486;51.916;8.378;2022-10-16T15:53:59;17.70;71.10
35381;DHT22;21486;51.916;8.378;2022-10-16T15:56:29;17.70;71.30
35381;DHT22;21486;51.916;8.378;2022-10-16T15:58:59;17.60;72.00
35381;DHT22;21486;51.916;8.378;2022-10-16T16:01:26;17.50;72.60
35381;DHT22;21486;51.916;8.378;2022-10-16T16:03:53;17.50;73.20
35381;DHT22;21486;51.916;8.378;2022-10-16T16:06:19;17.50;73.60
35381;DHT22;21486;51.916;8.378;2022-10-16T16:08:45;17.40;74.00
35381;DHT22;21486;51.916;8.378;2022-10-16T16:11:14;17.40;73.80
35381;DHT22;21486;51.916;8.378;2022-10-16T16:13:41;17.30;74.00
35381;DHT22;21486;51.916;8.378;2022-10-16T16:16:08;17.30;74.30
35381;DHT22;21486;51.916;8.378;2022-10-16T16:18:35;17.20;74.90
35381;DHT22;21486;51.916;8.378;2022-10-16T16:21:01;17.20;75.10
35381;DHT22;21486;51.916;8.378;2022-10-16T16:23:26;17.10;75.80
35381;DHT22;21486;51.916;8.378;2022-10-16T16:26:14;17.10;76.40
35381;DHT22;21486;51.916;8.378;2022-10-16T16:28:41;17.00;75.80
35381;DHT22;21486;51.916;8.378;2022-10-16T16:31:07;17.00;76.50
35381;DHT22;21486;51.916;8.378;2022-10-16T16:33:33;16.90;77.40
35381;DHT22;21486;51.916;8.378;2022-10-16T16:36:04;16.90;77.50
35381;DHT22;21486;51.916;8.378;2022-10-16T16:38:32;16.90;77.90
35381;DHT22;21486;51.916;8.378;2022-10-16T16:40:58;16.80;78.00
35381;DHT22;21486;51.916;8.378;2022-10-16T16:43:25;16.80;78.00
35381;DHT22;21486;51.916;8.378;2022-10-16T16:45:51;16.80;78.30
35381;DHT22;21486;51.916;8.378;2022-10-16T16:48:17;16.70;77.20
35381;DHT22;21486;51.916;8.378;2022-10-16T16:50:42;16.70;77.00
35381;DHT22;21486;51.916;8.378;2022-10-16T16:53:08;16.70;77.20
35381;DHT22;21486;51.916;8.378;2022-10-16T16:55:33;16.70;77.30
35381;DHT22;21486;51.916;8.378;2022-10-16T16:57:59;16.70;77.90
35381;DHT22;21486;51.916;8.378;2022-10-16T17:00:25;16.60;78.30
35381;DHT22;21486;51.916;8.378;2022-10-16T17:02:51;16.60;78.50
35381;DHT22;21486;51.916;8.378;2022-10-16T17:05:18;16.60;78.30
35381;DHT22;21486;51.916;8.378;2022-10-16T17:07:43;16.60;78.00
35381;DHT22;21486;51.916;8.378;2022-10-16T17:10:09;16.60;78.10
35381;DHT22;21486;51.916;8.378;2022-10-16T17:12:35;16.60;78.40
35381;DHT22;21486;51.916;8.378;2022-10-16T17:15:01;16.50;78.70